Time;durP1;ratioP1;P1;durP2;ratioP2;P2;SDS_P1;SDS_P2;PMS_P1;PMS_P2;Temp;Humidity;BMP_temperature;BMP_pressure;BME280_temperature;BME280_humidity;BME280_pressure;Samples;Min_cycle;Max_cycle;Signal;HPM_P1;HPM_P2
2022/06/30 00:00:23;;;;;;;2.10;1.90;;;24.10;45.70;;;26.72;35.23;101315.50;5097394;28;20197;-64
2022/06/30 00:02:51;;;;;;;1.67;1.53;;;24.10;45.60;;;26.71;35.10;101318.50;5097755;28;20223;-64
2022/06/30 00:05:18;;;;;;;2.10;1.90;;;24.10;45.60;;;26.68;35.61;101321.72;5098394;28;20208;-65
2022/06/30 00:07:46;;;;;;;2.70;1.83;;;24.10;45.50;;;26.66;35.82;101324.69;5099525;28;20188;-66
2022/06/30 00:10:13;;;;;;;3.27;1.93;;;24.10;45.80;;;26.67;35.51;101326.31;5114210;28;20189;-65
2022/06/30 00:12:41;;;;;;;2.47;1.93;;;24.00;45.90;;;26.66;35.19;101330.09;5098048;28;20714;-66
2022/06/30 00:15:11;;;;;;;3.53;1.90;;;24.00;45.90;;;26.64;35.87;101324.16;5097808;28;20180;-66
2022/06/30 00:17:38;;;;;;;2.40;2.17;;;24.00;46.20;;;26.62;35.38;101329.03;5097618;28;20623;-66
2022/06/30 00:20:07;;;;;;;2.10;1.90;;;24.00;46.20;;;26.60;36.02;101325.75;5097945;28;20193;-67
2022/06/30 00:22:34;;;;;;;2.97;1.97;;;24.00;46.20;;;26.55;35.58;101327.66;5097120;28;20299;-66
2022/06/30 00:25:02;;;;;;;1.50;1.40;;;23.90;46.40;;;26.53;36.29;101327.88;5096712;28;20196;-66
2022/06/30 00:27:30;;;;;;;6.37;2.17;;;23.90;46.60;;;26.49;35.66;101321.41;5096774;28;20187;-66
2022/06/30 00:29:58;;;;;;;1.80;1.70;;;23.90;46.70;;;26.48;35.69;101327.88;5096362;28;20196;-66
2022/06/30 00:32:27;;;;;;;1.97;1.80;;;23.80;46.70;;;26.46;36.42;101324.63;5094697;28;20528;-65
2022/06/30 00:34:55;;;;;;;2.83;1.80;;;23.80;46.90;;;26.44;35.93;101326.78;5096244;28;20188;-66
2022/06/30 00:37:23;;;;;;;2.07;1.97;;;23.80;46.90;;;26.44;36.63;101325.97;5096576;28;20212;-66
2022/06/30 00:39:50;;;;;;;1.73;1.63;;;23.70;47.00;;;26.38;36.05;101317.06;5096556;28;20654;-65
2022/06/30 00:42:18;;;;;;;2.17;1.87;;;23.70;47.30;;;26.33;36.41;101319.72;5095819;28;20223;-65
2022/06/30 00:44:46;;;;;;;2.00;1.80;;;23.60;48.20;;;26.29;36.96;101320.53;5096132;28;20694;-66
2022/06/30 00:47:14;;;;;;;1.93;1.73;;;23.60;47.70;;;26.26;36.68;101318.34;5095670;28;20650;-66
2022/06/30 00:49:43;;;;;;;2.20;1.97;;;23.50;47.70;;;26.20;37.14;101312.09;5095718;28;20195;-66
2022/06/30 00:52:13;;;;;;;2.27;2.07;;;23.50;48.00;;;26.16;37.51;101311.00;5095547;28;20638;-66
2022/06/30 00:54:44;;;;;;;1.93;1.83;;;23.50;48.20;;;26.11;37.26;101305.59;5096035;28;20177;-66
2022/06/30 00:57:14;;;;;;;2.20;2.10;;;23.40;48.90;;;26.08;37.07;101311.47;5096028;28;20196;-65
2022/06/30 00:59:48;;;;;;;2.13;2.03;;;23.40;48.30;;;26.02;36.85;101301.75;5095934;28;20191;-66
2022/06/30 01:02:18;;;;;;;2.43;1.87;;;23.40;48.40;;;26.00;37.04;101298.50;5095726;28;20211;-66
2022/06/30 01:04:49;;;;;;;2.47;2.13;;;23.30;48.30;;;25.94;36.88;101289.56;5095114;28;20598;-66
2022/06/30 01:07:20;;;;;;;3.40;2.80;;;23.30;48.30;;;25.92;37.09;101291.72;5096252;28;20209;-66
2022/06/30 01:12:43;;;;;;;2.87;2.50;;;23.20;48.50;;;25.91;37.38;101283.91;5095518;28;20230;-66
2022/06/30 01:15:12;;;;;;;4.00;2.23;;;23.20;48.70;;;25.91;37.74;101273.09;5095895;28;20215;-66
2022/06/30 01:17:40;;;;;;;3.50;2.20;;;23.20;48.60;;;25.92;37.35;101274.72;5095438;28;20191;-66
2022/06/30 01:20:10;;;;;;;3.77;3.23;;;23.20;48.50;;;25.91;37.10;101273.09;5094810;28;20189;-66
2022/06/30 01:22:39;;;;;;;2.67;2.40;;;23.20;48.60;;;25.90;37.61;101271.47;5094664;28;20223;-67
2022/06/30 01:25:10;;;;;;;3.67;2.93;;;23.20;48.60;;;25.88;37.33;101281.72;5095437;28;20188;-67
2022/06/30 01:27:38;;;;;;;2.73;2.53;;;23.20;48.60;;;25.84;37.23;101262.53;5095636;28;20220;-67
2022/06/30 01:30:06;;;;;;;3.07;2.77;;;23.20;48.40;;;25.81;37.28;101267.66;5095205;28;20193;-67
2022/06/30 01:32:33;;;;;;;3.73;2.90;;;23.10;48.50;;;25.77;37.66;101266.56;5094840;28;20205;-67
2022/06/30 01:35:01;;;;;;;2.97;2.63;;;23.10;48.60;;;25.76;37.83;101270.31;5095193;28;20199;-67
2022/06/30 01:37:46;;;;;;;4.30;2.80;;;23.10;48.60;;;25.66;37.69;101254.88;5095026;28;20193;-66
2022/06/30 01:40:15;;;;;;;4.47;3.00;;;23.10;48.60;;;25.68;37.87;101254.63;5094875;28;20192;-67
2022/06/30 01:42:43;;;;;;;4.20;2.90;;;23.00;48.70;;;25.66;37.95;101254.88;5094595;28;20216;-66
2022/06/30 01:45:11;;;;;;;3.10;2.80;;;23.00;48.70;;;25.64;37.60;101256.22;5094544;28;20196;-66
2022/06/30 01:47:41;;;;;;;3.03;2.77;;;23.00;48.80;;;25.62;37.71;101252.97;5094786;28;20222;-67
2022/06/30 01:50:11;;;;;;;3.03;2.83;;;23.00;48.70;;;25.60;37.63;101255.13;5095925;28;20188;-66
2022/06/30 01:52:39;;;;;;;3.10;2.80;;;23.00;48.90;;;25.57;38.16;101250.25;5093910;28;20220;-67
2022/06/30 01:55:09;;;;;;;3.53;2.73;;;22.90;48.90;;;25.58;38.22;101251.88;5095345;28;20196;-65
2022/06/30 01:57:37;;;;;;;3.60;3.27;;;22.90;49.80;;;25.58;38.36;101244.56;5094550;28;20189;-66
2022/06/30 02:00:10;;;;;;;4.10;3.23;;;22.90;49.20;;;25.56;37.53;101241.34;5094635;28;20741;-65
2022/06/30 02:02:38;;;;;;;3.23;2.60;;;22.90;49.10;;;25.54;37.88;101238.09;5094466;28;20554;-63
2022/06/30 02:05:07;;;;;;;3.10;2.77;;;22.90;49.10;;;25.52;37.69;101235.66;5094960;28;20525;-67
2022/06/30 02:07:39;;;;;;;4.57;2.90;;;22.90;49.20;;;25.52;38.19;101234.84;5092916;28;20208;-66
2022/06/30 02:10:11;;;;;;;3.00;2.50;;;22.80;49.40;;;25.50;38.37;101239.69;5094615;28;20180;-65
2022/06/30 02:12:45;;;;;;;3.90;3.10;;;22.80;49.50;;;25.51;38.37;101230.50;5094281;28;20212;-66
2022/06/30 02:15:14;;;;;;;5.90;2.93;;;22.80;49.60;;;25.50;38.26;101234.31;5093598;28;20291;-66
2022/06/30 02:17:43;;;;;;;7.33;3.10;;;22.80;50.40;;;25.49;38.03;101232.66;5094260;28;20654;-66
2022/06/30 02:20:12;;;;;;;3.07;2.87;;;22.80;49.70;;;25.49;38.26;101243.44;5093554;28;20203;-66
2022/06/30 02:22:41;;;;;;;3.70;3.40;;;22.80;50.00;;;25.47;38.34;101235.63;5093701;28;20686;-65
2022/06/30 02:25:10;;;;;;;3.20;3.00;;;22.80;50.00;;;25.45;38.32;101242.34;5093550;28;20593;-66
2022/06/30 02:27:37;;;;;;;4.30;3.00;;;22.80;50.10;;;25.44;38.74;101246.13;5094245;28;20212;-66
2022/06/30 02:30:06;;;;;;;4.13;3.30;;;22.70;50.10;;;25.40;38.79;101245.81;5094423;28;20199;-66
2022/06/30 02:32:35;;;;;;;7.00;3.27;;;22.70;50.30;;;25.34;38.77;101246.03;5094216;28;20204;-66
2022/06/30 02:35:03;;;;;;;4.07;3.57;;;22.70;50.50;;;25.28;39.12;101236.28;5093942;28;20200;-66
2022/06/30 02:37:30;;;;;;;5.33;3.40;;;22.60;50.80;;;25.24;39.17;101245.97;5094225;28;20185;-65
2022/06/30 02:39:58;;;;;;;3.53;2.93;;;22.50;50.90;;;25.20;38.96;101240.25;5093828;28;20646;-66
2022/06/30 02:42:27;;;;;;;3.93;3.53;;;22.50;51.10;;;25.17;39.03;101245.38;5093923;28;20209;-66
2022/06/30 02:44:54;;;;;;;3.67;2.83;;;22.50;51.20;;;25.13;39.79;101238.84;5094395;28;20210;-66
2022/06/30 02:47:29;;;;;;;3.37;3.07;;;22.40;51.20;;;25.07;39.25;101248.81;5092785;28;20211;-66
2022/06/30 02:49:56;;;;;;;3.43;3.13;;;22.40;51.50;;;25.06;39.58;101249.03;5094154;28;20199;-67
2022/06/30 02:52:23;;;;;;;3.67;3.30;;;22.40;51.70;;;25.04;40.21;101235.84;5093354;28;20575;-67
2022/06/30 02:54:51;;;;;;;3.17;2.87;;;22.30;51.80;;;25.02;39.78;101240.69;5093969;28;20191;-67
2022/06/30 02:57:18;;;;;;;3.90;3.20;;;22.30;51.80;;;25.00;40.14;101234.75;5092930;28;20222;-66
2022/06/30 02:59:47;;;;;;;3.37;3.07;;;22.30;52.00;;;24.99;40.29;101243.06;5093980;28;20200;-66
2022/06/30 03:02:14;;;;;;;4.00;3.67;;;22.30;52.10;;;24.96;40.29;101232.81;5093027;28;20677;-66
2022/06/30 03:04:42;;;;;;;5.83;3.40;;;22.20;52.70;;;24.94;39.89;101233.06;5093787;28;20192;-66
2022/06/30 03:07:09;;;;;;;3.73;3.20;;;22.20;52.10;;;24.88;39.99;101229.53;5093898;28;20212;-66
2022/06/30 03:09:37;;;;;;;4.80;3.73;;;22.20;52.00;;;24.84;39.92;101230.28;5093789;28;20188;-66
2022/06/30 03:12:05;;;;;;;3.23;2.90;;;22.10;52.20;;;24.78;40.03;101231.31;5092665;28;20216;-65
2022/06/30 03:14:34;;;;;;;4.30;3.60;;;22.10;52.30;;;24.73;40.45;101228.53;5093336;28;20272;-65
2022/06/30 03:17:04;;;;;;;4.13;3.50;;;22.10;52.40;;;24.70;40.47;101223.66;5093269;28;20196;-66
2022/06/30 03:19:31;;;;;;;3.43;3.10;;;22.00;52.50;;;24.67;40.23;101229.56;5093538;28;20189;-67
2022/06/30 03:21:59;;;;;;;3.93;3.40;;;22.00;52.70;;;24.63;40.78;101220.34;5093470;28;20222;-67
2022/06/30 03:24:26;;;;;;;5.27;2.87;;;22.00;52.80;;;24.61;40.58;101219.81;5093946;28;20669;-67
2022/06/30 03:26:54;;;;;;;5.30;3.80;;;21.90;52.90;;;24.61;41.01;101219.81;5093956;28;20666;-66
2022/06/30 03:29:21;;;;;;;6.03;3.40;;;21.90;53.00;;;24.61;40.65;101219.81;5092961;28;20201;-67
2022/06/30 03:31:48;;;;;;;4.83;3.43;;;21.90;53.00;;;24.59;41.07;101217.38;5092964;28;20218;-67
2022/06/30 03:34:17;;;;;;;5.13;3.43;;;21.90;53.10;;;24.58;40.62;101212.25;5093358;28;20196;-66
2022/06/30 03:36:45;;;;;;;3.77;3.37;;;21.90;53.30;;;24.56;40.66;101208.97;5093674;28;20188;-67
2022/06/30 03:39:13;;;;;;;3.73;3.43;;;21.90;53.30;;;24.56;40.84;101209.81;5093596;28;20669;-66
2022/06/30 03:41:40;;;;;;;3.23;2.93;;;21.90;53.30;;;24.55;40.91;101210.06;5092677;28;20205;-67
2022/06/30 03:44:08;;;;;;;3.53;3.23;;;21.80;53.30;;;24.53;41.05;101212.22;5092751;28;20646;-66
2022/06/30 03:46:35;;;;;;;3.07;2.70;;;21.80;53.50;;;24.51;40.78;101211.66;5092702;28;20219;-67
2022/06/30 03:49:02;;;;;;;3.83;3.50;;;21.80;53.50;;;24.50;41.19;101210.00;5093239;28;20268;-66
2022/06/30 03:51:31;;;;;;;4.37;3.10;;;21.80;53.60;;;24.49;40.79;101211.06;5092484;28;20238;-66
2022/06/30 03:53:59;;;;;;;3.93;3.30;;;21.70;53.60;;;24.51;41.29;101208.97;5093320;28;20287;-67
2022/06/30 03:56:26;;;;;;;4.70;3.40;;;21.70;53.70;;;24.51;41.34;101204.38;5092989;28;20184;-66
2022/06/30 03:58:53;;;;;;;4.10;2.83;;;21.80;53.80;;;24.51;41.22;101214.34;5092946;28;20635;-67
2022/06/30 04:01:22;;;;;;;3.97;3.20;;;21.80;53.70;;;24.54;41.22;101208.44;5091867;28;20763;-66
2022/06/30 04:03:49;;;;;;;3.87;3.50;;;21.80;53.80;;;24.53;41.30;101209.50;5092783;28;20535;-66
2022/06/30 04:06:17;;;;;;;3.40;3.00;;;21.80;53.70;;;24.54;41.26;101214.63;5092837;28;20558;-66
2022/06/30 04:08:46;;;;;;;3.33;3.10;;;21.80;53.80;;;24.54;41.45;101221.88;5096325;28;20193;-67
2022/06/30 04:11:13;;;;;;;4.20;3.57;;;21.80;53.80;;;24.53;41.00;101222.97;5095959;28;20258;-66
2022/06/30 04:13:41;;;;;;;4.23;3.17;;;21.80;53.80;;;24.52;41.41;101226.72;5096176;28;20196;-67
2022/06/30 04:16:08;;;;;;;5.30;3.90;;;21.80;54.00;;;24.51;41.12;101231.28;5075531;28;20193;-66
2022/06/30 04:18:39;;;;;;;5.13;3.40;;;21.80;54.00;;;24.50;41.10;101218.09;5076103;28;20201;-66
2022/06/30 04:21:07;;;;;;;5.13;3.50;;;21.80;54.10;;;24.51;41.29;101222.41;5075959;28;20209;-66
2022/06/30 04:23:35;;;;;;;4.10;3.53;;;21.80;54.10;;;24.52;41.55;101214.06;5075919;28;20197;-66
2022/06/30 04:26:04;;;;;;;4.20;3.30;;;21.80;54.20;;;24.53;41.17;101212.22;5075961;28;20666;-67
2022/06/30 04:28:31;;;;;;;4.87;3.50;;;21.80;54.20;;;24.50;41.51;101210.00;5086582;28;20231;-67
2022/06/30 04:33:45;;;;;;;4.40;4.00;;;21.80;54.20;;;24.46;41.27;101212.38;5095852;28;20188;-66
2022/06/30 04:36:12;;;;;;;5.33;3.83;;;21.80;54.20;;;24.44;41.75;101214.53;5095920;28;20518;-67
2022/06/30 04:38:39;;;;;;;3.73;3.43;;;21.80;54.30;;;24.46;41.46;101208.91;5096050;28;20193;-67
2022/06/30 04:41:24;;;;;;;4.90;3.43;;;21.80;54.50;;;24.49;41.72;101205.69;5095353;28;20205;-66
2022/06/30 04:43:53;;;;;;;6.40;3.57;;;21.80;54.70;;;24.53;41.88;101212.22;5095476;28;20197;-66
2022/06/30 04:46:20;;;;;;;5.90;4.00;;;21.80;54.60;;;24.54;41.61;101203.03;5095496;28;20256;-67
2022/06/30 04:48:48;;;;;;;6.53;3.53;;;21.80;54.60;;;24.59;41.44;101200.41;5095695;28;20267;-66
2022/06/30 04:51:16;;;;;;;6.80;3.43;;;21.80;54.60;;;24.62;41.91;101205.28;5094791;28;20224;-66
2022/06/30 04:53:44;;;;;;;5.03;3.50;;;21.80;54.70;;;24.64;41.86;101206.66;5095383;28;20215;-66
2022/06/30 04:56:14;;;;;;;3.97;3.07;;;21.90;54.90;;;24.67;41.53;101197.25;5095525;28;20184;-66
2022/06/30 04:58:41;;;;;;;3.40;3.10;;;21.90;54.90;;;24.71;41.57;101201.88;5095158;28;20293;-64
2022/06/30 05:01:10;;;;;;;5.20;3.17;;;21.90;54.80;;;24.76;41.29;101206.47;5094279;28;20208;-66
2022/06/30 05:03:38;;;;;;;3.73;3.43;;;22.00;55.10;;;24.78;41.42;101199.00;5095464;28;20187;-66
2022/06/30 05:06:06;;;;;;;3.67;3.37;;;22.00;54.80;;;24.82;41.49;101205.47;5095366;28;20185;-66
2022/06/30 05:08:34;;;;;;;3.97;3.30;;;22.00;54.60;;;24.83;41.71;101207.13;5095681;28;20310;-65
2022/06/30 05:11:01;;;;;;;5.30;3.40;;;22.10;54.80;;;24.86;41.34;101206.59;5095377;28;20202;-66
2022/06/30 05:13:35;;;;;;;3.90;3.10;;;22.10;54.90;;;24.91;41.62;101209.34;5095325;28;20622;-66
2022/06/30 05:16:03;;;;;;;5.20;3.50;;;22.10;54.90;;;24.95;42.06;101196.97;5094362;28;20199;-66
2022/06/30 05:18:35;;;;;;;4.07;3.30;;;22.10;55.00;;;25.00;41.34;101199.72;5094500;28;20185;-66
2022/06/30 05:21:03;;;;;;;5.70;3.40;;;22.20;55.10;;;25.08;41.75;101193.81;5094597;28;20636;-66
2022/06/30 05:23:30;;;;;;;5.00;3.87;;;22.30;55.10;;;25.16;41.32;101203.31;5094746;28;20716;-66
2022/06/30 05:28:45;;;;;;;4.07;3.77;;;22.40;54.90;;;25.29;41.55;101210.97;5093271;28;20708;-65
2022/06/30 05:31:12;;;;;;;4.10;3.73;;;22.50;54.70;;;25.29;40.73;101195.56;5094027;28;20220;-66
2022/06/30 05:33:40;;;;;;;4.60;3.57;;;22.50;54.20;;;25.37;41.38;101203.19;5094640;28;20193;-67
2022/06/30 05:36:07;;;;;;;8.93;8.07;;;22.60;54.40;;;25.43;40.67;101196.75;5094462;28;20199;-66
2022/06/30 05:38:35;;;;;;;5.57;4.07;;;22.60;54.40;;;25.52;40.66;101206.00;5093993;28;20180;-66
2022/06/30 05:41:02;;;;;;;3.60;3.03;;;22.70;54.40;;;25.60;40.97;101195.78;5094227;28;20290;-66
2022/06/30 05:43:30;;;;;;;4.97;3.40;;;22.80;54.30;;;25.67;40.44;101199.06;5093978;28;20188;-67
2022/06/30 05:45:58;;;;;;;4.83;4.07;;;22.80;54.20;;;25.75;41.07;101202.06;5110981;28;20207;-67
2022/06/30 05:48:26;;;;;;;3.93;3.60;;;22.90;54.20;;;25.83;40.93;101195.34;5094257;28;20211;-66
2022/06/30 05:50:53;;;;;;;4.27;3.80;;;23.00;54.10;;;25.90;40.48;101190.53;5093532;28;20211;-67
2022/06/30 05:53:21;;;;;;;5.60;3.87;;;23.00;53.80;;;25.97;40.18;101191.91;5094142;28;20193;-65
2022/06/30 05:55:48;;;;;;;5.27;3.83;;;23.10;53.80;;;26.07;40.54;101188.41;5093319;28;20564;-64
2022/06/30 05:58:18;;;;;;;6.93;3.93;;;23.20;53.70;;;26.11;40.08;101184.13;5093021;28;20196;-65
2022/06/30 06:00:45;;;;;;;6.17;4.33;;;23.30;53.50;;;26.17;40.40;101175.78;5093987;28;20189;-65
2022/06/30 06:03:15;;;;;;;6.80;3.53;;;23.40;53.40;;;26.28;39.68;101187.41;5098519;28;20192;-65
2022/06/30 06:05:42;;;;;;;5.07;4.60;;;23.40;53.30;;;26.37;39.94;101191.19;5094620;28;20192;-65
2022/06/30 06:08:12;;;;;;;5.17;4.00;;;23.50;53.40;;;26.47;39.45;101190.41;5093623;28;20220;-66
2022/06/30 06:10:40;;;;;;;7.40;5.73;;;23.60;53.20;;;26.55;39.70;101196.09;5093368;28;20559;-66
2022/06/30 06:13:09;;;;;;;4.67;4.23;;;23.70;53.30;;;26.63;40.15;101195.56;5092450;28;20192;-66
2022/06/30 06:15:36;;;;;;;5.87;4.57;;;23.80;53.40;;;26.67;39.70;101207.44;5094145;28;20659;-66
2022/06/30 06:18:04;;;;;;;5.63;4.10;;;23.80;53.20;;;26.75;40.02;101209.63;5093784;28;20665;-66
2022/06/30 06:20:33;;;;;;;5.00;4.07;;;23.90;53.30;;;26.81;39.52;101202.34;5093030;28;20238;-66
2022/06/30 06:23:00;;;;;;;5.40;3.70;;;24.00;53.70;;;26.88;40.17;101202.91;5093491;28;20184;-66
2022/06/30 06:25:28;;;;;;;5.57;3.93;;;24.00;53.50;;;26.98;39.82;101207.47;5093909;28;20196;-66
2022/06/30 06:30:46;;;;;;;4.70;3.93;;;24.20;53.70;;;27.09;40.13;101206.38;5093152;28;20279;-66
2022/06/30 06:33:14;;;;;;;4.70;3.50;;;24.30;53.80;;;27.18;39.70;101213.66;5093849;28;20188;-67
2022/06/30 06:35:43;;;;;;;8.27;6.00;;;24.30;53.90;;;27.25;39.98;101208.78;5093480;28;20185;-66
2022/06/30 06:38:10;;;;;;;5.53;3.57;;;24.40;53.80;;;27.30;40.52;101189.84;5091035;28;20221;-66
2022/06/30 06:40:37;;;;;;;7.43;6.73;;;24.50;54.00;;;27.37;40.30;101189.56;5092984;28;20195;-65
2022/06/30 06:43:05;;;;;;;4.63;3.70;;;24.60;53.90;;;27.48;40.01;101185.78;5092946;28;20272;-66
2022/06/30 06:45:32;;;;;;;4.30;3.90;;;24.60;53.80;;;27.62;39.88;101192.22;5092891;28;20643;-66
2022/06/30 06:47:59;;;;;;;5.53;4.10;;;24.70;54.50;;;27.76;39.59;101197.84;5093227;28;20235;-66
2022/06/30 06:50:27;;;;;;;4.90;4.40;;;24.90;53.90;;;27.91;39.53;101190.47;5092604;28;20192;-65
2022/06/30 06:52:56;;;;;;;4.53;3.10;;;25.00;53.80;;;28.06;39.11;101187.72;5092314;28;20212;-66
2022/06/30 06:55:23;;;;;;;3.93;3.63;;;25.10;53.40;;;28.16;39.44;101193.06;5092772;28;20643;-66
2022/06/30 06:57:51;;;;;;;4.63;3.87;;;25.20;53.60;;;28.17;39.17;101189.25;5092909;28;20187;-67
2022/06/30 07:00:18;;;;;;;5.10;4.17;;;25.30;53.50;;;28.18;39.49;101185.47;5093355;28;20200;-67
2022/06/30 07:02:46;;;;;;;5.27;4.50;;;25.40;53.40;;;28.26;39.64;101185.97;5093311;28;20208;-66
2022/06/30 07:05:13;;;;;;;4.53;3.67;;;25.40;53.40;;;28.33;39.39;101186.47;5093325;28;20189;-66
2022/06/30 07:07:41;;;;;;;6.40;3.80;;;25.50;53.90;;;28.42;39.48;101182.06;5093386;28;20699;-67
2022/06/30 07:10:10;;;;;;;4.40;3.63;;;25.50;53.40;;;28.46;39.50;101177.69;5093023;28;20192;-66
2022/06/30 07:12:38;;;;;;;4.93;3.80;;;25.60;53.40;;;28.53;39.59;101175.47;5093194;28;20208;-66
2022/06/30 07:15:08;;;;;;;5.13;4.60;;;25.70;53.40;;;28.54;39.59;101174.38;5092949;28;20657;-66
2022/06/30 07:17:36;;;;;;;5.50;3.90;;;25.80;53.50;;;28.59;39.42;101174.34;5093557;28;20191;-66
2022/06/30 07:20:05;;;;;;;4.43;4.00;;;25.80;53.20;;;28.63;39.42;101170.00;5093555;28;20189;-66
2022/06/30 07:22:34;;;;;;;8.53;4.50;;;25.90;53.40;;;28.65;39.48;101173.25;5093118;28;20212;-66
2022/06/30 07:25:02;;;;;;;4.60;4.20;;;26.00;53.20;;;28.70;39.36;101179.44;5092824;28;20250;-65
2022/06/30 07:27:34;;;;;;;3.97;3.67;;;26.00;53.30;;;28.73;39.51;101176.16;5093576;28;20548;-66
2022/06/30 07:30:02;;;;;;;3.73;3.43;;;26.00;53.20;;;28.69;39.56;101177.81;5092928;28;20661;-66
2022/06/30 07:32:29;;;;;;;6.57;5.53;;;26.00;53.00;;;28.71;39.51;101172.94;5092508;28;20282;-65
2022/06/30 07:34:57;;;;;;;4.30;3.90;;;26.10;53.20;;;28.80;39.58;101181.25;5093018;28;20199;-66
2022/06/30 07:37:25;;;;;;;6.70;4.33;;;26.20;53.10;;;28.83;39.24;101175.28;5091372;28;20231;-65
2022/06/30 07:39:52;;;;;;;4.60;4.20;;;26.20;52.80;;;28.87;39.40;101173.59;5090870;27;20210;-67
2022/06/30 07:42:19;;;;;;;5.13;4.63;;;26.30;53.10;;;28.94;39.57;101178.69;5091512;28;20313;-66
2022/06/30 07:44:48;;;;;;;3.97;3.63;;;26.30;53.10;;;29.02;39.40;101165.31;5090973;28;20206;-68
2022/06/30 07:47:16;;;;;;;4.33;3.90;;;26.40;52.80;;;29.05;38.64;101162.00;5093547;28;20207;-67
2022/06/30 07:49:44;;;;;;;5.10;4.67;;;26.40;52.30;;;29.11;38.97;101160.88;5094266;28;20202;-66
2022/06/30 07:52:11;;;;;;;5.37;4.13;;;26.50;52.40;;;29.21;38.67;101160.81;5093570;27;20279;-66
2022/06/30 07:54:43;;;;;;;5.47;4.97;;;26.60;52.20;;;29.28;38.50;101164.00;5095142;28;20238;-66
2022/06/30 07:57:12;;;;;;;6.17;4.27;;;26.60;51.80;;;29.33;38.73;101158.50;5093837;28;20204;-67
2022/06/30 08:00:00;;;;;;;6.00;5.50;;;26.70;51.60;;;29.39;38.60;101159.25;5094855;28;20198;-66
2022/06/30 08:02:27;;;;;;;6.73;5.10;;;26.80;51.70;;;29.50;38.32;101164.25;5094733;28;20216;-66
2022/06/30 08:04:55;;;;;;;5.23;4.50;;;26.80;51.60;;;29.62;38.27;101165.78;5094082;28;20219;-67
2022/06/30 08:07:22;;;;;;;6.33;4.60;;;27.00;51.50;;;29.75;37.80;101160.44;5095033;28;20511;-65
2022/06/30 08:09:49;;;;;;;7.57;6.33;;;27.00;51.20;;;29.90;37.30;101156.72;5094987;28;20195;-66
2022/06/30 08:12:17;;;;;;;4.67;4.27;;;27.10;50.70;;;30.01;37.05;101155.47;5093569;28;20670;-66
2022/06/30 08:14:44;;;;;;;5.07;4.00;;;27.20;50.60;;;30.15;37.23;101162.59;5094159;28;20193;-64
2022/06/30 08:17:13;;;;;;;5.43;4.93;;;27.30;50.60;;;30.28;36.80;101155.63;5094358;28;20195;-66
2022/06/30 08:19:41;;;;;;;5.60;4.40;;;27.50;50.50;;;30.56;36.65;101160.09;5094421;28;20658;-63
2022/06/30 08:22:09;;;;;;;5.93;4.30;;;27.60;49.80;;;31.32;35.72;101147.84;5093925;28;20200;-64
2022/06/30 08:24:38;;;;;;;8.53;4.80;;;27.80;49.80;;;32.48;33.30;101145.28;5093973;28;20257;-66
2022/06/30 08:27:05;;;;;;;4.03;3.73;;;28.20;48.80;;;33.69;31.42;101142.03;5094427;28;20654;-66
2022/06/30 08:29:33;;;;;;;4.80;4.30;;;28.70;47.80;;;34.84;29.80;101142.16;5093556;28;20220;-65
2022/06/30 08:32:02;;;;;;;4.60;4.20;;;29.40;46.20;;;35.83;28.25;101136.03;5094284;28;20215;-66
2022/06/30 08:34:31;;;;;;;4.43;4.13;;;30.20;45.10;;;36.78;26.84;101142.28;5109286;28;20197;-66
2022/06/30 08:36:58;;;;;;;5.13;4.40;;;31.00;43.00;;;37.69;26.41;101149.19;5093537;28;20554;-65
2022/06/30 08:42:12;;;;;;;3.85;3.47;;;32.50;39.70;;;39.48;23.76;101142.31;5093864;28;20302;-66
2022/06/30 08:44:43;;;;;;;4.20;3.90;;;33.20;37.80;;;40.37;23.16;101148.53;5081031;28;20211;-65
2022/06/30 08:47:12;;;;;;;3.78;3.47;;;33.80;37.10;;;41.30;21.43;101148.22;5091666;28;20204;-65
2022/06/30 08:49:42;;;;;;;4.18;3.83;;;34.40;34.80;;;41.80;20.86;101142.25;5093530;28;20212;-63
2022/06/30 08:52:12;;;;;;;5.57;4.05;;;34.90;33.50;;;42.41;20.53;101136.28;5092258;28;20262;-63
2022/06/30 08:54:40;;;;;;;4.03;3.72;;;35.50;33.30;;;42.83;19.86;101141.44;5092753;28;20203;-67
2022/06/30 08:57:09;;;;;;;4.18;3.83;;;35.90;31.40;;;42.98;19.48;101132.09;5095389;27;20208;-66
2022/06/30 08:59:37;;;;;;;3.88;3.58;;;36.40;30.70;;;43.03;19.24;101129.75;5093330;28;20180;-64
2022/06/30 09:02:05;;;;;;;4.35;4.05;;;36.70;29.90;;;43.21;19.08;101138.19;5092713;28;20350;-66
2022/06/30 09:04:33;;;;;;;5.20;4.80;;;36.90;29.70;;;43.57;19.07;101142.81;5091978;28;20262;-64
2022/06/30 09:07:02;;;;;;;4.20;3.90;;;37.20;29.40;;;44.06;18.88;101141.44;5089070;28;20230;-65
2022/06/30 09:09:29;;;;;;;4.55;4.20;;;37.40;29.50;;;44.39;18.00;101135.59;5087043;28;20240;-65
2022/06/30 09:11:58;;;;;;;3.92;3.63;;;37.70;28.30;;;44.52;17.83;101125.72;5083820;28;20236;-65
2022/06/30 09:14:37;;;;;;;5.65;3.95;;;38.00;28.20;;;45.07;17.15;101128.13;5093220;28;20566;-63
2022/06/30 09:17:08;;;;;;;3.70;3.45;;;38.30;27.90;;;45.49;17.11;101114.94;5092188;28;20307;-64
2022/06/30 09:19:40;;;;;;;3.90;3.60;;;38.60;27.80;;;45.97;16.87;101126.31;5093268;28;20192;-66
2022/06/30 09:22:15;;;;;;;3.20;3.00;;;38.90;27.40;;;46.04;16.20;101125.47;5092559;28;20332;-63
2022/06/30 09:24:43;;;;;;;4.18;3.88;;;39.10;26.50;;;46.01;16.62;101124.28;5092485;28;20201;-64
2022/06/30 09:27:21;;;;;;;3.55;3.25;;;39.30;26.30;;;46.16;16.19;101134.16;5091921;28;20672;-64
2022/06/30 09:29:52;;;;;;;3.75;3.40;;;39.50;25.70;;;46.07;16.38;101136.63;5092987;28;20216;-65
2022/06/30 09:32:49;;;;;;;3.45;3.25;;;39.60;25.60;;;46.01;16.50;101135.44;5089930;28;20212;-61
2022/06/30 09:35:20;;;;;;;3.85;3.63;;;39.80;25.60;;;46.03;16.57;101130.25;5088873;28;20662;-63
2022/06/30 09:38:01;;;;;;;3.58;3.38;;;39.90;25.60;;;46.32;15.74;101125.28;5083909;27;20202;-64
2022/06/30 09:40:31;;;;;;;3.40;3.20;;;40.00;25.40;;;46.51;16.10;101121.19;5080401;28;20223;-63
2022/06/30 09:42:59;;;;;;;3.45;3.25;;;40.10;25.60;;;46.80;15.65;101108.63;5079449;28;20239;-64
2022/06/30 09:45:37;;;;;;;5.25;4.85;;;40.10;25.40;;;47.21;15.04;101120.63;5083397;28;20196;-62
2022/06/30 09:48:06;;;;;;;3.00;2.80;;;40.30;25.20;;;47.42;15.25;101112.03;5094204;28;20198;-63
2022/06/30 09:50:34;;;;;;;3.00;2.80;;;40.40;25.30;;;47.56;14.79;101114.66;5082776;28;20276;-62
2022/06/30 09:53:12;;;;;;;5.30;3.97;;;40.50;24.70;;;47.52;15.01;101116.69;5098531;27;20242;-63
2022/06/30 09:55:46;;;;;;;3.72;3.40;;;40.60;24.80;;;47.70;14.76;101118.47;5086063;28;20382;-65
2022/06/30 09:58:17;;;;;;;3.58;3.17;;;40.70;24.30;;;47.40;14.69;101110.84;5091429;28;20195;-64
2022/06/30 10:00:48;;;;;;;3.40;3.10;;;40.70;24.00;;;47.38;15.10;101119.59;5086577;28;20193;-63
2022/06/30 10:03:17;;;;;;;3.58;2.83;;;40.70;24.40;;;47.55;14.76;101118.63;5076494;28;20603;-63
2022/06/30 10:05:46;;;;;;;4.13;3.83;;;40.70;24.40;;;47.88;14.62;101124.66;5082340;28;20191;-65
2022/06/30 10:08:18;;;;;;;4.43;4.13;;;40.80;24.30;;;48.14;14.16;101116.28;5076007;28;20196;-62
2022/06/30 10:10:46;;;;;;;4.07;3.67;;;40.80;24.20;;;48.47;13.99;101120.19;5081291;28;20211;-64
2022/06/30 10:13:17;;;;;;;3.75;3.45;;;40.90;24.10;;;48.56;13.80;101123.25;5078891;28;20196;-63
2022/06/30 10:15:51;;;;;;;3.20;2.90;;;40.90;23.50;;;48.54;13.82;101122.09;5081129;28;20191;-63
2022/06/30 10:18:20;;;;;;;4.43;3.83;;;41.00;24.10;;;47.93;13.83;101113.00;5077926;28;20223;-61
2022/06/30 10:20:49;;;;;;;3.75;3.45;;;40.70;23.40;;;46.99;14.74;101116.44;5078468;28;20647;-64
2022/06/30 10:23:19;;;;;;;3.85;3.42;;;40.50;23.90;;;46.43;15.16;101119.69;5083835;28;20543;-64
2022/06/30 10:25:49;;;;;;;3.97;3.60;;;40.30;24.30;;;46.06;15.67;101111.94;5087334;28;20193;-63
2022/06/30 10:28:20;;;;;;;6.55;3.42;;;40.10;24.60;;;46.01;15.50;101104.78;5084721;28;20201;-62
2022/06/30 10:31:06;;;;;;;3.70;3.40;;;39.90;25.00;;;46.24;15.98;101113.41;5087477;28;20199;-65
2022/06/30 10:33:49;;;;;;;4.15;3.85;;;39.90;25.30;;;46.25;15.32;101103.84;5086758;28;20185;-64